createdAt,value
2022-12-11T00:00:49.190Z,16.60
2022-12-11T00:03:16.523Z,16.90
2022-12-11T00:05:43.790Z,16.60
2022-12-11T00:08:10.797Z,16.60
2022-12-11T00:10:38.220Z,16.70
2022-12-11T00:13:05.161Z,16.60
2022-12-11T00:15:31.919Z,16.50
2022-12-11T00:17:58.482Z,16.50
2022-12-11T00:20:25.163Z,16.70
2022-12-11T00:22:51.767Z,16.50
2022-12-11T00:25:18.348Z,16.50
2022-12-11T00:27:45.748Z,16.50
2022-12-11T00:30:12.488Z,16.50
2022-12-11T00:32:39.133Z,16.50
2022-12-11T00:35:05.897Z,16.50
2022-12-11T00:40:13.407Z,16.50
2022-12-11T00:42:39.969Z,16.60
2022-12-11T00:45:06.793Z,16.60
2022-12-11T00:47:33.435Z,16.60
2022-12-11T00:50:00.041Z,16.60
2022-12-11T00:52:26.625Z,16.60
2022-12-11T00:54:53.192Z,16.70
2022-12-11T00:57:19.752Z,16.70
2022-12-11T00:59:46.316Z,16.60
2022-12-11T01:02:12.975Z,16.70
2022-12-11T01:04:39.536Z,16.60
2022-12-11T01:07:06.105Z,16.60
2022-12-11T01:09:51.194Z,16.70
2022-12-11T01:12:17.783Z,16.60
2022-12-11T01:14:44.381Z,16.60
2022-12-11T01:17:11.192Z,16.60
2022-12-11T01:19:37.744Z,16.60
2022-12-11T01:22:04.304Z,16.60
2022-12-11T01:24:30.839Z,16.80
2022-12-11T01:26:57.404Z,16.50
2022-12-11T01:29:24.049Z,16.60
2022-12-11T01:31:50.647Z,16.50
2022-12-11T01:34:17.210Z,16.50
2022-12-11T01:36:43.768Z,16.50
2022-12-11T01:39:10.342Z,16.60
2022-12-11T01:41:36.954Z,16.50
2022-12-11T01:44:05.529Z,16.60
2022-12-11T01:46:33.751Z,16.50
2022-12-11T01:49:01.829Z,16.60
2022-12-11T01:51:29.412Z,16.70
2022-12-11T01:53:57.994Z,16.70
2022-12-11T01:56:24.805Z,16.80
2022-12-11T02:01:33.876Z,16.70
2022-12-11T02:04:01.309Z,16.70
2022-12-11T02:06:33.680Z,16.70
2022-12-11T02:09:00.655Z,16.70
2022-12-11T02:11:42.466Z,16.60
2022-12-11T02:14:13.984Z,16.60
2022-12-11T02:16:50.609Z,16.60
2022-12-11T02:21:53.435Z,16.70
2022-12-11T02:24:37.865Z,16.60
2022-12-11T02:27:10.510Z,16.70
2022-12-11T02:29:38.910Z,16.80
2022-12-11T02:32:44.186Z,16.70
2022-12-11T02:35:20.141Z,16.50
2022-12-11T02:37:47.889Z,16.50
2022-12-11T02:40:17.074Z,16.60
2022-12-11T02:42:45.221Z,16.90
2022-12-11T02:45:12.609Z,16.70
2022-12-11T02:47:39.529Z,16.50
2022-12-11T02:50:09.758Z,16.50
2022-12-11T02:52:36.930Z,16.50
2022-12-11T02:55:05.978Z,16.70
2022-12-11T03:00:16.607Z,16.70
2022-12-11T03:02:43.664Z,16.70
2022-12-11T03:05:12.062Z,16.70
2022-12-11T03:07:40.518Z,16.70
2022-12-11T03:10:08.411Z,16.80
2022-12-11T03:12:37.129Z,16.90
2022-12-11T03:15:05.879Z,16.70
2022-12-11T03:20:26.380Z,16.70
2022-12-11T03:23:08.184Z,16.80
2022-12-11T03:25:40.130Z,16.80
2022-12-11T03:28:15.157Z,16.70
2022-12-11T03:30:43.775Z,16.70
2022-12-11T03:33:13.616Z,16.60
2022-12-11T03:35:44.974Z,16.60
2022-12-11T03:41:32.634Z,16.60
2022-12-11T03:43:59.348Z,16.70
2022-12-11T03:46:29.582Z,16.60
2022-12-11T03:48:58.580Z,16.90
2022-12-11T03:51:25.782Z,16.60
2022-12-11T03:53:53.105Z,16.60
2022-12-11T03:56:20.800Z,16.60
2022-12-11T03:58:47.477Z,16.60
2022-12-11T04:01:14.064Z,16.30
2022-12-11T04:03:40.701Z,16.60
2022-12-11T04:06:07.460Z,16.70
2022-12-11T04:08:34.081Z,16.60
2022-12-11T04:11:21.745Z,16.60
2022-12-11T04:14:08.320Z,16.50
2022-12-11T04:16:34.860Z,16.50
2022-12-11T04:19:20.189Z,16.70
2022-12-11T04:22:05.233Z,16.70
2022-12-11T04:24:31.967Z,16.80
2022-12-11T04:26:58.531Z,16.70
2022-12-11T04:29:25.171Z,16.90
2022-12-11T04:31:51.800Z,16.60
2022-12-11T04:34:18.374Z,16.60
2022-12-11T04:36:45.730Z,16.60
2022-12-11T04:39:12.301Z,16.60
2022-12-11T04:41:39.035Z,16.50
2022-12-11T04:44:05.620Z,16.60
2022-12-11T04:46:33.186Z,16.70
2022-12-11T04:49:24.132Z,16.60
2022-12-11T04:51:50.708Z,16.80
2022-12-11T04:54:17.256Z,16.50
2022-12-11T04:56:43.810Z,16.50
2022-12-11T04:59:10.414Z,16.50
2022-12-11T05:01:37.088Z,16.50
2022-12-11T05:04:03.723Z,16.50
2022-12-11T05:06:30.291Z,16.50
2022-12-11T05:08:56.918Z,16.50
2022-12-11T05:11:23.569Z,16.70
2022-12-11T05:13:50.141Z,16.70
2022-12-11T05:16:17.100Z,16.60
2022-12-11T05:18:43.713Z,16.90
2022-12-11T05:21:11.639Z,16.70
2022-12-11T05:23:38.702Z,16.50
2022-12-11T05:26:06.935Z,16.60
2022-12-11T05:28:35.478Z,16.70
2022-12-11T05:31:04.789Z,16.70
2022-12-11T05:33:31.612Z,16.50
2022-12-11T05:35:58.233Z,16.50
2022-12-11T05:38:24.864Z,16.40
2022-12-11T05:40:58.790Z,16.50
2022-12-11T05:43:26.027Z,16.50
2022-12-11T05:45:52.881Z,16.50
2022-12-11T05:48:19.687Z,16.70
2022-12-11T05:50:55.962Z,16.40
2022-12-11T05:53:22.505Z,16.40
2022-12-11T05:55:49.080Z,16.50
2022-12-11T05:58:15.764Z,16.40
2022-12-11T06:00:42.655Z,16.30
2022-12-11T06:03:09.313Z,16.30
2022-12-11T06:05:39.768Z,16.50
2022-12-11T06:08:06.706Z,16.50
2022-12-11T06:10:33.759Z,16.50
2022-12-11T06:13:00.598Z,16.50
2022-12-11T06:15:27.203Z,16.70
2022-12-11T06:17:53.760Z,16.70
2022-12-11T06:20:20.337Z,16.80
2022-12-11T06:22:46.965Z,16.90
2022-12-11T06:25:14.004Z,16.80
2022-12-11T06:27:40.745Z,16.80
2022-12-11T06:30:08.010Z,16.90
2022-12-11T06:32:34.559Z,16.80
2022-12-11T06:35:01.135Z,16.80
2022-12-11T06:37:27.759Z,16.80
2022-12-11T06:39:54.341Z,16.70
2022-12-11T06:42:20.969Z,16.70
2022-12-11T06:44:47.947Z,16.80
2022-12-11T06:47:14.551Z,16.80
2022-12-11T06:49:41.288Z,16.70
2022-12-11T06:52:07.843Z,16.70
2022-12-11T06:54:34.625Z,16.70
2022-12-11T06:57:01.224Z,16.60
2022-12-11T06:59:27.905Z,16.50
2022-12-11T07:01:54.577Z,16.60
2022-12-11T07:04:24.657Z,16.60
2022-12-11T07:06:51.821Z,16.40
2022-12-11T07:09:18.451Z,16.50
2022-12-11T07:11:45.079Z,16.50
2022-12-11T07:14:11.716Z,16.50
2022-12-11T07:16:38.527Z,16.50
2022-12-11T07:19:05.406Z,16.70
2022-12-11T07:21:32.165Z,16.40
2022-12-11T07:23:58.730Z,16.50
2022-12-11T07:26:25.413Z,16.50
2022-12-11T07:28:52.012Z,16.50
2022-12-11T07:31:20.224Z,16.50
2022-12-11T07:33:47.345Z,16.50
2022-12-11T07:36:14.732Z,16.50
2022-12-11T07:38:41.418Z,16.50
2022-12-11T07:41:09.339Z,16.60
2022-12-11T07:43:36.438Z,16.30
2022-12-11T07:46:07.079Z,16.40
2022-12-11T07:48:37.088Z,16.40
2022-12-11T07:51:18.956Z,16.50
2022-12-11T07:53:46.552Z,16.50
2022-12-11T07:56:13.176Z,16.60
2022-12-11T07:58:40.091Z,16.40
2022-12-11T08:01:10.664Z,16.50
2022-12-11T08:03:37.266Z,16.50
2022-12-11T08:06:03.938Z,16.50
2022-12-11T08:08:30.758Z,16.50
2022-12-11T08:11:00.586Z,16.60
2022-12-11T08:13:27.600Z,16.60
2022-12-11T08:15:54.906Z,16.60
2022-12-11T08:18:21.872Z,16.60
2022-12-11T08:20:48.422Z,16.60
2022-12-11T08:23:15.019Z,16.70
2022-12-11T08:25:41.756Z,16.60
2022-12-11T08:28:08.490Z,16.60
2022-12-11T08:30:35.181Z,16.60
2022-12-11T08:33:01.863Z,16.60
2022-12-11T08:35:28.474Z,16.50
2022-12-11T08:37:55.037Z,16.50
2022-12-11T08:40:21.993Z,16.50
2022-12-11T08:42:48.555Z,16.60
2022-12-11T08:45:15.188Z,16.50
2022-12-11T08:47:41.858Z,16.50
2022-12-11T08:50:09.213Z,16.50
2022-12-11T08:52:35.824Z,16.50
2022-12-11T08:55:02.833Z,16.60
2022-12-11T08:57:29.672Z,16.60
2022-12-11T08:59:56.228Z,16.50
2022-12-11T09:02:22.992Z,16.60
2022-12-11T09:04:50.483Z,16.60
2022-12-11T09:07:17.056Z,16.60
2022-12-11T09:09:43.603Z,16.60
2022-12-11T09:12:10.155Z,16.50
2022-12-11T09:14:36.917Z,16.60
2022-12-11T09:17:05.439Z,16.50
2022-12-11T09:19:32.483Z,16.60
2022-12-11T09:21:59.310Z,16.50
2022-12-11T09:24:25.890Z,16.50
2022-12-11T09:26:52.484Z,16.50
2022-12-11T09:29:19.180Z,16.50
2022-12-11T09:31:46.766Z,16.40
2022-12-11T09:34:13.809Z,16.50
2022-12-11T09:36:41.165Z,16.50
2022-12-11T09:39:08.500Z,16.50
2022-12-11T09:41:37.101Z,16.50
2022-12-11T09:44:03.651Z,16.60
2022-12-11T09:46:34.292Z,16.50
2022-12-11T09:49:02.295Z,16.60
2022-12-11T09:51:28.872Z,16.60
2022-12-11T09:53:57.386Z,16.80
2022-12-11T09:56:34.280Z,16.50
2022-12-11T09:59:19.651Z,16.50
2022-12-11T10:01:50.495Z,16.50
2022-12-11T10:04:35.860Z,16.50
2022-12-11T10:07:06.870Z,16.50
2022-12-11T10:09:39.545Z,16.60
2022-12-11T10:12:12.137Z,16.60
2022-12-11T10:14:38.846Z,16.60
2022-12-11T10:17:11.017Z,16.60
2022-12-11T10:19:38.493Z,16.50
2022-12-11T10:22:05.265Z,16.50
2022-12-11T10:25:09.476Z,16.50
2022-12-11T10:27:27.520Z,16.50
2022-12-11T10:30:14.889Z,16.50
2022-12-11T10:32:44.593Z,16.50
2022-12-11T10:35:17.884Z,16.50
2022-12-11T10:37:44.448Z,16.50
2022-12-11T10:40:12.267Z,16.70
2022-12-11T10:42:44.066Z,16.50
2022-12-11T10:45:15.929Z,16.60
2022-12-11T10:47:42.559Z,16.50
2022-12-11T10:50:23.017Z,16.60
2022-12-11T10:52:50.326Z,16.60
2022-12-11T10:55:28.292Z,16.60
2022-12-11T10:57:57.019Z,16.60
2022-12-11T11:00:34.028Z,16.70
2022-12-11T11:03:01.709Z,16.60
2022-12-11T11:05:35.808Z,16.60
2022-12-11T11:08:13.527Z,16.60
2022-12-11T11:10:50.327Z,16.90
2022-12-11T11:13:16.931Z,16.60
2022-12-11T11:15:43.616Z,16.60
2022-12-11T11:18:12.694Z,16.60
2022-12-11T11:20:43.882Z,16.70
2022-12-11T11:23:13.933Z,16.60
2022-12-11T11:25:48.556Z,16.50
2022-12-11T11:28:21.273Z,16.50
2022-12-11T11:30:56.459Z,16.50
2022-12-11T11:33:23.777Z,16.50
2022-12-11T11:35:53.340Z,16.60
2022-12-11T11:38:22.507Z,16.60
2022-12-11T11:41:05.650Z,16.70
2022-12-11T11:43:37.328Z,16.70
2022-12-11T11:46:25.460Z,17.00
2022-12-11T11:49:04.451Z,16.80
2022-12-11T11:51:34.417Z,16.90
2022-12-11T11:54:03.030Z,16.90
2022-12-11T11:56:36.177Z,16.90
2022-12-11T11:59:03.106Z,16.80
2022-12-11T12:01:30.314Z,16.80
2022-12-11T12:03:57.529Z,16.80
2022-12-11T12:06:24.129Z,16.90
2022-12-11T12:08:53.572Z,16.90
2022-12-11T12:11:27.950Z,16.90
2022-12-11T12:14:51.122Z,16.90
2022-12-11T12:17:08.944Z,16.90
2022-12-11T12:19:51.288Z,16.90
2022-12-11T12:22:43.956Z,16.90
2022-12-11T12:25:10.905Z,16.80
2022-12-11T12:27:52.051Z,16.90
2022-12-11T12:30:22.830Z,16.90
2022-12-11T12:32:50.115Z,16.80
2022-12-11T12:35:16.916Z,16.80
2022-12-11T12:37:49.629Z,16.70
2022-12-11T12:40:16.740Z,16.80
2022-12-11T12:43:04.589Z,16.80
2022-12-11T12:45:35.114Z,16.70
2022-12-11T12:48:01.950Z,16.60
2022-12-11T12:50:33.206Z,16.60
2022-12-11T12:53:01.192Z,16.70
2022-12-11T12:55:29.487Z,16.80
2022-12-11T12:57:57.693Z,16.80
2022-12-11T13:00:35.619Z,16.70
2022-12-11T13:03:12.984Z,16.80
2022-12-11T13:05:41.655Z,16.80
2022-12-11T13:08:08.984Z,16.90
2022-12-11T13:10:37.388Z,16.60
2022-12-11T13:13:05.424Z,16.70
2022-12-11T13:15:34.179Z,16.70
2022-12-11T13:18:02.370Z,16.80
2022-12-11T13:20:31.103Z,16.70
2022-12-11T13:23:06.590Z,16.70
2022-12-11T13:25:48.214Z,16.60
2022-12-11T13:28:45.723Z,16.60
2022-12-11T13:31:15.926Z,16.60
2022-12-11T13:33:50.972Z,16.50
2022-12-11T13:36:22.806Z,16.70
2022-12-11T13:39:00.778Z,16.70
2022-12-11T13:41:28.127Z,16.60
2022-12-11T13:43:55.281Z,16.70
2022-12-11T13:46:27.393Z,16.60
2022-12-11T13:49:02.318Z,16.60
2022-12-11T13:51:31.104Z,16.60
2022-12-11T13:54:16.959Z,16.50
2022-12-11T13:56:54.165Z,16.50
2022-12-11T13:59:24.467Z,16.50
2022-12-11T14:01:53.603Z,16.50
2022-12-11T14:04:21.393Z,16.50
2022-12-11T14:06:48.572Z,16.50
2022-12-11T14:09:20.319Z,16.50
2022-12-11T14:11:50.927Z,16.50
2022-12-11T14:14:22.317Z,16.50
2022-12-11T14:16:49.549Z,16.50
2022-12-11T14:19:17.780Z,16.40
2022-12-11T14:21:54.618Z,16.50
2022-12-11T14:24:21.204Z,16.40
2022-12-11T14:26:52.029Z,16.50
2022-12-11T14:29:24.458Z,16.50
2022-12-11T14:31:51.201Z,16.40
2022-12-11T14:34:21.266Z,16.40
2022-12-11T14:36:48.874Z,16.40
2022-12-11T14:39:29.340Z,16.40
2022-12-11T14:42:11.258Z,16.50
2022-12-11T14:44:46.905Z,16.50
2022-12-11T14:47:16.581Z,16.60
2022-12-11T14:49:59.312Z,16.50
2022-12-11T14:52:30.792Z,16.50
2022-12-11T14:55:01.906Z,16.50
2022-12-11T14:57:29.962Z,16.50
2022-12-11T14:59:57.575Z,16.60
2022-12-11T15:02:35.217Z,16.60
2022-12-11T15:05:05.291Z,16.60
2022-12-11T15:07:37.570Z,16.50
2022-12-11T15:10:05.382Z,16.50
2022-12-11T15:12:34.019Z,16.40
2022-12-11T15:15:03.370Z,16.40
2022-12-11T15:17:30.579Z,16.50
2022-12-11T15:20:03.582Z,16.50
2022-12-11T15:22:34.697Z,16.60
2022-12-11T15:25:02.178Z,16.50
2022-12-11T15:27:39.043Z,16.70
2022-12-11T15:30:15.626Z,16.50
2022-12-11T15:32:42.186Z,16.60
2022-12-11T15:35:22.838Z,16.70
2022-12-11T15:37:56.469Z,16.60
2022-12-11T15:40:23.290Z,16.70
2022-12-11T15:42:50.426Z,16.70
2022-12-11T15:45:18.673Z,16.60
2022-12-11T15:47:45.986Z,16.60
2022-12-11T15:50:17.334Z,16.50
2022-12-11T15:52:44.422Z,16.50
2022-12-11T15:55:11.572Z,16.60
2022-12-11T15:57:49.169Z,16.60
2022-12-11T16:00:16.998Z,16.50
2022-12-11T16:02:43.629Z,16.60
2022-12-11T16:05:10.904Z,16.70
2022-12-11T16:07:38.382Z,16.60
2022-12-11T16:10:06.408Z,16.60
2022-12-11T16:12:33.098Z,16.60
2022-12-11T16:14:59.815Z,16.60
2022-12-11T16:17:26.568Z,16.60
2022-12-11T16:19:53.168Z,16.50
2022-12-11T16:22:19.798Z,16.50
2022-12-11T16:24:46.441Z,16.50
2022-12-11T16:27:13.046Z,16.50
2022-12-11T16:29:41.281Z,16.60
2022-12-11T16:32:08.572Z,16.50
2022-12-11T16:34:36.243Z,16.80
2022-12-11T16:37:03.448Z,16.60
2022-12-11T16:39:30.030Z,16.80
2022-12-11T16:41:56.633Z,16.70
2022-12-11T16:44:24.105Z,16.70
2022-12-11T16:46:51.061Z,16.70
2022-12-11T16:49:18.056Z,16.60
2022-12-11T16:51:44.699Z,16.60
2022-12-11T16:54:11.825Z,16.60
2022-12-11T16:56:38.507Z,16.70
2022-12-11T16:59:05.512Z,16.60
2022-12-11T17:01:32.245Z,16.70
2022-12-11T17:03:59.243Z,16.60
2022-12-11T17:06:25.977Z,16.60
2022-12-11T17:08:52.599Z,16.60
2022-12-11T17:11:21.619Z,16.60
2022-12-11T17:13:52.578Z,16.60
2022-12-11T17:16:19.331Z,16.80
2022-12-11T17:18:45.973Z,16.50
2022-12-11T17:21:13.314Z,16.50
2022-12-11T17:23:40.328Z,16.50
2022-12-11T17:26:08.722Z,16.60
2022-12-11T17:28:35.746Z,16.50
2022-12-11T17:31:09.601Z,16.50
2022-12-11T17:33:36.200Z,16.60
2022-12-11T17:36:04.370Z,16.80
2022-12-11T17:38:31.327Z,16.70
2022-12-11T17:40:58.233Z,16.50
2022-12-11T17:43:24.909Z,16.60
2022-12-11T17:45:52.540Z,16.70
2022-12-11T17:48:22.299Z,16.60
2022-12-11T17:50:49.431Z,16.40
2022-12-11T17:53:16.743Z,16.60
2022-12-11T17:55:43.978Z,16.70
2022-12-11T17:58:15.350Z,16.70
2022-12-11T18:00:43.094Z,16.70
2022-12-11T18:03:10.414Z,16.60
2022-12-11T18:05:41.814Z,16.60
2022-12-11T18:08:15.733Z,16.60
2022-12-11T18:10:42.643Z,16.60
2022-12-11T18:13:09.325Z,16.50
2022-12-11T18:15:36.341Z,16.60
2022-12-11T18:18:03.808Z,16.40
2022-12-11T18:20:31.423Z,16.50
2022-12-11T18:22:58.093Z,16.50
2022-12-11T18:25:24.680Z,16.50
2022-12-11T18:27:51.962Z,16.50
2022-12-11T18:30:18.530Z,16.50
2022-12-11T18:32:45.332Z,16.50
2022-12-11T18:35:12.266Z,16.50
2022-12-11T18:37:39.293Z,16.50
2022-12-11T18:40:06.149Z,16.50
2022-12-11T18:42:33.704Z,16.50
2022-12-11T18:45:00.804Z,16.50
2022-12-11T18:47:27.389Z,16.50
2022-12-11T18:49:54.057Z,16.60
2022-12-11T18:52:20.783Z,16.60
2022-12-11T18:54:47.526Z,16.70
2022-12-11T18:57:14.115Z,16.70
2022-12-11T18:59:40.741Z,16.80
2022-12-11T19:02:07.737Z,16.80
2022-12-11T19:04:36.090Z,16.80
2022-12-11T19:07:02.632Z,16.80
2022-12-11T19:09:31.658Z,16.80
2022-12-11T19:12:01.967Z,16.70
2022-12-11T19:14:28.637Z,16.80
2022-12-11T19:16:55.296Z,16.80
2022-12-11T19:19:22.071Z,16.80
2022-12-11T19:21:49.197Z,16.80
2022-12-11T19:24:17.789Z,16.80
2022-12-11T19:26:44.499Z,16.90
2022-12-11T19:29:17.426Z,16.90
2022-12-11T19:31:44.081Z,16.90
2022-12-11T19:34:10.719Z,17.00
2022-12-11T19:36:37.340Z,16.80
2022-12-11T19:39:08.315Z,16.90
2022-12-11T19:41:38.129Z,17.10
2022-12-11T19:44:04.887Z,16.80
2022-12-11T19:46:31.445Z,16.80
2022-12-11T19:49:00.050Z,16.90
2022-12-11T19:51:28.556Z,16.80
2022-12-11T19:53:55.682Z,16.70
2022-12-11T19:56:22.481Z,16.80
2022-12-11T19:58:51.005Z,16.70
2022-12-11T20:01:19.209Z,16.80
2022-12-11T20:03:45.959Z,16.70
2022-12-11T20:06:13.611Z,16.70
2022-12-11T20:08:45.251Z,16.70
2022-12-11T20:11:17.872Z,16.60
2022-12-11T20:13:48.546Z,16.70
2022-12-11T20:16:15.975Z,16.50
2022-12-11T20:18:42.865Z,16.50
2022-12-11T20:21:12.033Z,16.40
2022-12-11T20:23:38.856Z,16.30
2022-12-11T20:26:09.437Z,16.30
2022-12-11T20:28:36.135Z,16.40
2022-12-11T20:31:26.155Z,16.60
2022-12-11T20:33:53.139Z,16.20
2022-12-11T20:36:20.554Z,16.40
2022-12-11T20:38:47.270Z,16.40
2022-12-11T20:41:14.847Z,16.30
2022-12-11T20:43:41.713Z,16.40
2022-12-11T20:46:09.723Z,16.30
2022-12-11T20:48:36.969Z,16.40
2022-12-11T20:51:04.345Z,16.40
2022-12-11T20:53:31.313Z,16.40
2022-12-11T20:55:58.186Z,16.40
2022-12-11T20:58:24.918Z,16.50
2022-12-11T21:00:51.519Z,16.60
2022-12-11T21:03:18.269Z,16.60
2022-12-11T21:05:45.605Z,16.70
2022-12-11T21:08:12.606Z,16.60
2022-12-11T21:10:42.868Z,16.70
2022-12-11T21:13:09.502Z,16.70
2022-12-11T21:15:36.453Z,16.70
2022-12-11T21:18:03.110Z,16.60
2022-12-11T21:20:29.844Z,16.70
2022-12-11T21:22:57.513Z,16.60
2022-12-11T21:25:24.379Z,16.70
2022-12-11T21:27:51.227Z,16.60
2022-12-11T21:30:17.857Z,16.60
2022-12-11T21:32:44.835Z,16.60
2022-12-11T21:35:12.161Z,16.60
2022-12-11T21:37:41.672Z,16.50
2022-12-11T21:40:09.119Z,16.50
2022-12-11T21:42:35.813Z,16.50
2022-12-11T21:47:50.177Z,16.70
2022-12-11T21:50:17.063Z,16.40
2022-12-11T21:52:43.997Z,16.40
2022-12-11T21:55:11.676Z,16.40
2022-12-11T21:57:38.504Z,16.40
2022-12-11T22:00:05.466Z,16.50
2022-12-11T22:02:35.995Z,16.40
2022-12-11T22:05:06.023Z,16.50
2022-12-11T22:07:32.605Z,16.50
2022-12-11T22:09:59.166Z,16.40
2022-12-11T22:12:26.716Z,16.50
2022-12-11T22:14:53.335Z,16.50
2022-12-11T22:17:19.956Z,16.40
2022-12-11T22:19:46.996Z,16.40
2022-12-11T22:22:13.989Z,16.40
2022-12-11T22:24:40.978Z,16.50
2022-12-11T22:27:07.602Z,16.50
2022-12-11T22:29:34.800Z,16.50
2022-12-11T22:32:01.511Z,16.60
2022-12-11T22:34:28.086Z,16.60
2022-12-11T22:36:54.702Z,16.70
2022-12-11T22:39:21.388Z,16.60
2022-12-11T22:41:47.947Z,16.80
2022-12-11T22:44:16.423Z,16.90
2022-12-11T22:46:49.643Z,16.70
2022-12-11T22:49:17.297Z,16.80
2022-12-11T22:51:44.010Z,16.70
2022-12-11T22:54:10.603Z,16.60
2022-12-11T22:56:37.162Z,16.60
2022-12-11T22:59:03.754Z,16.60
2022-12-11T23:01:30.482Z,16.70
2022-12-11T23:03:57.078Z,16.70
2022-12-11T23:06:24.789Z,16.70
2022-12-11T23:08:52.188Z,16.60
2022-12-11T23:11:21.044Z,16.70
2022-12-11T23:13:47.584Z,16.70
2022-12-11T23:16:14.289Z,16.70
2022-12-11T23:18:41.251Z,16.60
2022-12-11T23:21:08.432Z,16.60
2022-12-11T23:23:35.490Z,16.60
2022-12-11T23:26:02.147Z,16.60
2022-12-11T23:28:28.941Z,16.80
2022-12-11T23:30:55.610Z,16.80
2022-12-11T23:33:22.244Z,16.80
2022-12-11T23:35:56.567Z,16.80
2022-12-11T23:38:23.245Z,16.90
2022-12-11T23:40:50.293Z,16.80
2022-12-11T23:43:16.864Z,16.80
2022-12-11T23:45:44.658Z,16.70
2022-12-11T23:48:12.547Z,16.70
2022-12-11T23:50:39.993Z,16.80
2022-12-11T23:53:06.599Z,16.70
2022-12-11T23:55:33.166Z,16.70
2022-12-11T23:57:59.826Z,16.70
